createdAt,value
2022-11-13T00:01:28.987Z,5.00
2022-11-13T00:04:51.310Z,4.53
2022-11-13T00:08:13.813Z,5.30
2022-11-13T00:11:37.372Z,5.70
2022-11-13T00:14:59.732Z,5.07
2022-11-13T00:18:23.320Z,4.93
2022-11-13T00:21:45.673Z,5.13
2022-11-13T00:25:07.880Z,5.47
2022-11-13T00:28:30.227Z,6.03
2022-11-13T00:31:52.381Z,5.50
2022-11-13T00:35:16.032Z,5.13
2022-11-13T00:38:38.642Z,5.63
2022-11-13T00:42:01.077Z,6.17
2022-11-13T00:45:23.433Z,5.67
2022-11-13T00:48:45.464Z,5.77
2022-11-13T00:52:09.313Z,5.83
2022-11-13T00:55:31.553Z,5.37
2022-11-13T00:58:53.786Z,5.83
2022-11-13T01:02:16.395Z,5.90
2022-11-13T01:05:39.575Z,5.60
2022-11-13T01:09:03.760Z,5.43
2022-11-13T01:12:26.204Z,5.63
2022-11-13T01:15:48.254Z,5.77
2022-11-13T01:19:10.672Z,6.33
2022-11-13T01:22:32.874Z,5.80
2022-11-13T01:25:56.431Z,6.10
2022-11-13T01:29:19.052Z,5.93
2022-11-13T01:32:40.958Z,6.07
2022-11-13T01:36:04.625Z,5.87
2022-11-13T01:39:27.094Z,6.07
2022-11-13T01:42:50.898Z,6.43
2022-11-13T01:46:23.417Z,6.37
2022-11-13T01:49:47.252Z,6.47
2022-11-13T01:53:09.791Z,6.40
2022-11-13T01:56:32.471Z,7.30
2022-11-13T02:00:00.392Z,6.87
2022-11-13T02:03:22.810Z,6.60
2022-11-13T02:06:49.871Z,6.77
2022-11-13T02:10:12.169Z,7.00
2022-11-13T02:13:35.211Z,7.10
2022-11-13T02:17:02.488Z,7.10
2022-11-13T02:20:33.761Z,6.70
2022-11-13T02:24:02.626Z,7.63
2022-11-13T02:27:32.048Z,7.07
2022-11-13T02:30:54.171Z,7.90
2022-11-13T02:34:16.247Z,6.70
2022-11-13T02:37:38.441Z,6.63
2022-11-13T02:41:00.563Z,6.67
2022-11-13T02:44:24.263Z,7.67
2022-11-13T02:47:46.621Z,7.30
2022-11-13T02:51:08.917Z,7.23
2022-11-13T02:54:31.258Z,7.00
2022-11-13T02:57:53.307Z,6.70
2022-11-13T03:01:16.931Z,6.23
2022-11-13T03:05:10.207Z,6.80
2022-11-13T03:08:21.100Z,7.40
2022-11-13T03:11:44.607Z,6.40
2022-11-13T03:15:08.005Z,7.90
2022-11-13T03:18:31.484Z,7.33
2022-11-13T03:21:53.535Z,7.57
2022-11-13T03:25:15.783Z,6.73
2022-11-13T03:28:38.736Z,6.87
2022-11-13T03:32:00.643Z,7.43
2022-11-13T03:35:27.556Z,8.90
2022-11-13T03:38:52.767Z,7.87
2022-11-13T03:42:14.901Z,7.17
2022-11-13T03:45:37.193Z,8.70
2022-11-13T03:48:59.380Z,8.00
2022-11-13T03:52:23.019Z,7.90
2022-11-13T03:55:45.279Z,8.50
2022-11-13T03:59:07.659Z,8.30
2022-11-13T04:02:31.032Z,7.80
2022-11-13T04:05:53.051Z,8.03
2022-11-13T04:09:16.780Z,7.90
2022-11-13T04:12:38.951Z,7.23
2022-11-13T04:16:01.212Z,8.20
2022-11-13T04:19:23.465Z,19.07
2022-11-13T04:22:45.711Z,12.53
2022-11-13T04:26:09.535Z,12.03
2022-11-13T04:29:31.925Z,9.00
2022-11-13T04:32:54.022Z,10.33
2022-11-13T04:36:16.333Z,20.10
2022-11-13T04:39:38.792Z,33.30
2022-11-13T04:43:01.323Z,59.17
2022-11-13T04:46:23.666Z,50.10
2022-11-13T04:49:46.043Z,45.17
2022-11-13T04:53:08.227Z,30.33
2022-11-13T04:56:30.449Z,29.33
2022-11-13T04:59:54.045Z,39.50
2022-11-13T05:03:16.183Z,43.97
2022-11-13T05:06:38.069Z,43.67
2022-11-13T05:10:00.231Z,34.43
2022-11-13T05:13:22.495Z,31.03
2022-11-13T05:16:46.055Z,31.40
2022-11-13T05:20:09.321Z,31.03
2022-11-13T05:23:31.530Z,31.27
2022-11-13T05:26:53.589Z,21.37
2022-11-13T05:30:16.062Z,44.37
2022-11-13T05:33:40.622Z,29.20
2022-11-13T05:37:02.904Z,36.43
2022-11-13T05:40:25.231Z,24.33
2022-11-13T05:43:47.937Z,19.73
2022-11-13T05:47:10.416Z,18.80
2022-11-13T05:50:34.160Z,22.90
2022-11-13T05:53:56.436Z,23.50
2022-11-13T05:57:18.749Z,21.07
2022-11-13T06:00:41.137Z,20.33
2022-11-13T06:04:03.641Z,18.70
2022-11-13T06:07:27.141Z,18.83
2022-11-13T06:10:49.451Z,18.40
2022-11-13T06:14:11.854Z,14.77
2022-11-13T06:17:34.000Z,13.27
2022-11-13T06:20:56.451Z,12.17
2022-11-13T06:24:19.960Z,12.30
2022-11-13T06:27:42.441Z,11.73
2022-11-13T06:31:06.139Z,11.73
2022-11-13T06:34:28.521Z,12.77
2022-11-13T06:37:50.921Z,12.83
2022-11-13T06:41:16.311Z,11.30
2022-11-13T06:44:38.401Z,12.50
2022-11-13T06:48:00.451Z,12.40
2022-11-13T06:51:24.121Z,10.53
2022-11-13T06:54:46.281Z,11.63
2022-11-13T06:58:09.851Z,10.60
2022-11-13T07:01:32.265Z,10.77
2022-11-13T07:04:54.301Z,10.03
2022-11-13T07:08:17.131Z,12.57
2022-11-13T07:11:39.301Z,12.07
2022-11-13T07:15:03.024Z,10.50
2022-11-13T07:18:25.489Z,9.80
2022-11-13T07:21:47.552Z,10.60
2022-11-13T07:25:10.351Z,10.13
2022-11-13T07:28:32.860Z,10.13
2022-11-13T07:31:56.251Z,10.27
2022-11-13T07:35:18.742Z,10.20
2022-11-13T07:38:40.673Z,9.80
2022-11-13T07:42:02.901Z,10.13
2022-11-13T07:45:25.071Z,10.53
2022-11-13T07:48:48.573Z,10.10
2022-11-13T07:52:10.962Z,10.27
2022-11-13T07:55:35.151Z,10.97
2022-11-13T07:58:57.692Z,12.23
2022-11-13T08:02:25.095Z,12.33
2022-11-13T08:05:50.012Z,12.00
2022-11-13T08:09:12.321Z,14.20
2022-11-13T08:12:34.653Z,14.97
2022-11-13T08:15:59.862Z,13.33
2022-11-13T08:19:22.003Z,13.30
2022-11-13T08:22:45.392Z,12.33
2022-11-13T08:26:08.352Z,11.77
2022-11-13T08:29:30.752Z,12.60
2022-11-13T08:32:53.216Z,13.07
2022-11-13T08:36:15.413Z,13.63
2022-11-13T08:39:39.074Z,14.33
2022-11-13T08:43:01.762Z,13.57
2022-11-13T08:46:24.061Z,13.13
2022-11-13T08:49:46.347Z,13.80
2022-11-13T08:53:08.692Z,13.90
2022-11-13T08:56:32.230Z,14.13
2022-11-13T08:59:54.572Z,13.97
2022-11-13T09:03:16.592Z,14.60
2022-11-13T09:06:39.329Z,12.10
2022-11-13T09:10:01.315Z,29.37
2022-11-13T09:13:25.013Z,13.03
2022-11-13T09:16:47.083Z,13.33
2022-11-13T09:20:13.838Z,15.83
2022-11-13T09:23:36.382Z,15.70
2022-11-13T09:26:58.486Z,16.73
2022-11-13T09:30:22.193Z,15.27
2022-11-13T09:33:44.542Z,16.23
2022-11-13T09:37:06.501Z,14.40
2022-11-13T09:40:33.593Z,15.87
2022-11-13T09:44:00.072Z,16.23
2022-11-13T09:47:28.044Z,15.40
2022-11-13T09:50:50.813Z,15.97
2022-11-13T09:54:15.183Z,13.83
2022-11-13T09:57:47.632Z,15.57
2022-11-13T10:01:17.712Z,15.67
2022-11-13T10:04:54.813Z,15.20
2022-11-13T10:08:21.281Z,18.47
2022-11-13T10:11:49.882Z,12.43
2022-11-13T10:15:13.123Z,15.13
2022-11-13T10:18:39.502Z,12.33
2022-11-13T10:22:31.609Z,13.57
2022-11-13T10:25:52.703Z,15.23
2022-11-13T10:29:17.844Z,16.17
2022-11-13T10:32:40.211Z,13.67
2022-11-13T10:36:15.742Z,12.30
2022-11-13T10:39:44.712Z,14.47
2022-11-13T10:43:08.862Z,14.13
2022-11-13T10:46:33.292Z,15.17
2022-11-13T10:49:57.685Z,14.90
2022-11-13T10:53:20.844Z,16.30
2022-11-13T10:56:44.372Z,21.90
2022-11-13T11:00:22.412Z,11.60
2022-11-13T11:03:51.246Z,12.60
2022-11-13T11:07:20.278Z,12.27
2022-11-13T11:11:03.527Z,11.33
2022-11-13T11:14:31.353Z,14.43
2022-11-13T11:17:58.982Z,16.27
2022-11-13T11:21:24.203Z,14.10
2022-11-13T11:24:59.803Z,12.75
2022-11-13T11:28:31.817Z,8.93
2022-11-13T11:32:00.564Z,10.60
2022-11-13T11:35:26.022Z,11.00
2022-11-13T11:38:54.982Z,10.68
2022-11-13T11:42:29.382Z,9.98
2022-11-13T11:45:51.810Z,9.65
2022-11-13T11:49:15.812Z,11.53
2022-11-13T11:52:55.002Z,10.90
2022-11-13T11:56:34.182Z,18.20
2022-11-13T12:00:07.142Z,11.13
2022-11-13T12:03:52.681Z,11.23
2022-11-13T12:07:30.941Z,13.00
2022-11-13T12:11:02.393Z,13.10
2022-11-13T12:14:39.162Z,15.33
2022-11-13T12:18:15.712Z,14.53
2022-11-13T12:21:49.393Z,14.97
2022-11-13T12:25:24.783Z,13.53
2022-11-13T12:28:52.561Z,14.77
2022-11-13T12:32:28.752Z,14.20
2022-11-13T12:35:54.342Z,16.53
2022-11-13T12:39:43.194Z,15.10
2022-11-13T12:43:32.583Z,17.97
2022-11-13T12:46:58.312Z,16.10
2022-11-13T12:50:31.839Z,16.63
2022-11-13T12:53:56.435Z,20.63
2022-11-13T12:57:27.172Z,18.73
2022-11-13T13:00:58.170Z,18.17
2022-11-13T13:04:36.892Z,19.83
2022-11-13T13:08:28.621Z,18.43
2022-11-13T13:12:02.301Z,16.87
2022-11-13T13:15:32.041Z,17.67
2022-11-13T13:19:07.621Z,19.03
2022-11-13T13:22:32.094Z,17.40
2022-11-13T13:26:04.576Z,19.30
2022-11-13T13:29:27.751Z,20.00
2022-11-13T13:33:00.973Z,18.90
2022-11-13T13:36:37.191Z,18.20
2022-11-13T13:40:12.841Z,17.40
2022-11-13T13:43:53.131Z,19.10
2022-11-13T13:47:28.841Z,20.63
2022-11-13T13:50:53.761Z,19.20
2022-11-13T13:54:21.421Z,17.93
2022-11-13T13:57:47.193Z,18.30
2022-11-13T14:01:19.904Z,20.10
2022-11-13T14:04:46.261Z,19.37
2022-11-13T14:08:18.520Z,21.33
2022-11-13T14:11:42.241Z,19.93
2022-11-13T14:15:07.281Z,17.97
2022-11-13T14:18:32.211Z,19.37
2022-11-13T14:21:57.860Z,19.83
2022-11-13T14:25:24.788Z,18.87
2022-11-13T14:28:56.891Z,20.97
2022-11-13T14:32:26.039Z,20.07
2022-11-13T14:35:55.200Z,20.03
2022-11-13T14:39:27.083Z,19.50
2022-11-13T14:42:53.223Z,20.10
2022-11-13T14:46:29.192Z,20.30
2022-11-13T14:49:51.591Z,20.63
2022-11-13T14:53:13.640Z,19.90
2022-11-13T14:56:38.463Z,22.30
2022-11-13T15:00:13.380Z,22.47
2022-11-13T15:03:36.701Z,22.47
2022-11-13T15:07:01.339Z,23.63
2022-11-13T15:10:25.844Z,22.93
2022-11-13T15:13:49.645Z,21.83
2022-11-13T15:17:17.483Z,22.63
2022-11-13T15:20:43.361Z,23.10
2022-11-13T15:24:06.382Z,20.97
2022-11-13T15:27:29.553Z,22.80
2022-11-13T15:30:54.422Z,22.60
2022-11-13T15:34:17.522Z,22.77
2022-11-13T15:37:43.623Z,21.73
2022-11-13T15:41:15.972Z,22.07
2022-11-13T15:44:38.256Z,21.80
2022-11-13T15:48:00.192Z,19.17
2022-11-13T15:51:24.212Z,19.83
2022-11-13T15:54:55.161Z,19.63
2022-11-13T15:58:17.795Z,19.30
2022-11-13T16:01:40.102Z,19.37
2022-11-13T16:05:02.353Z,19.30
2022-11-13T16:08:24.834Z,19.63
2022-11-13T16:11:48.872Z,20.60
2022-11-13T16:15:15.465Z,19.93
2022-11-13T16:18:37.773Z,20.13
2022-11-13T16:22:02.480Z,19.80
2022-11-13T16:25:24.721Z,19.30
2022-11-13T16:29:12.024Z,19.77
2022-11-13T16:32:31.144Z,20.97
2022-11-13T16:35:53.593Z,20.80
2022-11-13T16:39:18.085Z,21.77
2022-11-13T16:42:39.971Z,21.77
2022-11-13T16:46:04.421Z,22.43
2022-11-13T16:49:26.731Z,22.97
2022-11-13T16:52:49.384Z,24.13
2022-11-13T16:56:17.631Z,23.77
2022-11-13T16:59:40.412Z,24.90
2022-11-13T17:03:04.101Z,24.57
2022-11-13T17:06:28.782Z,24.67
2022-11-13T17:10:10.061Z,24.67
2022-11-13T17:13:33.849Z,25.67
2022-11-13T17:16:56.101Z,25.90
2022-11-13T17:20:20.233Z,25.17
2022-11-13T17:23:42.812Z,25.37
2022-11-13T17:27:05.240Z,25.97
2022-11-13T17:30:27.422Z,26.13
2022-11-13T17:33:49.731Z,27.20
2022-11-13T17:37:13.282Z,27.43
2022-11-13T17:40:35.611Z,27.57
2022-11-13T17:44:01.459Z,26.87
2022-11-13T17:47:24.441Z,26.73
2022-11-13T17:50:57.072Z,27.27
2022-11-13T17:54:20.772Z,25.63
2022-11-13T17:57:42.994Z,25.60
2022-11-13T18:01:06.974Z,24.50
2022-11-13T18:04:28.893Z,25.57
2022-11-13T18:07:51.193Z,23.77
2022-11-13T18:11:16.882Z,23.80
2022-11-13T18:14:39.104Z,25.47
2022-11-13T18:18:01.353Z,24.23
2022-11-13T18:21:26.823Z,25.47
2022-11-13T18:24:49.146Z,25.37
2022-11-13T18:28:12.473Z,26.37
2022-11-13T18:31:34.722Z,27.07
2022-11-13T18:34:56.702Z,26.87
2022-11-13T18:38:18.752Z,25.03
2022-11-13T18:41:41.024Z,25.87
2022-11-13T18:45:06.178Z,26.00
2022-11-13T18:48:31.982Z,24.30
2022-11-13T18:51:54.062Z,25.57
2022-11-13T18:55:16.422Z,26.50
2022-11-13T18:58:39.903Z,28.53
2022-11-13T19:02:03.529Z,27.10
2022-11-13T19:05:25.932Z,30.70
2022-11-13T19:08:49.042Z,26.57
2022-11-13T19:12:11.131Z,27.03
2022-11-13T19:15:34.342Z,25.77
2022-11-13T19:18:59.853Z,27.33
2022-11-13T19:22:22.190Z,27.50
2022-11-13T19:25:44.552Z,28.27
2022-11-13T19:29:06.642Z,30.83
2022-11-13T19:32:29.263Z,31.43
2022-11-13T19:35:54.872Z,32.53
2022-11-13T19:39:17.032Z,38.33
2022-11-13T19:42:41.843Z,38.47
2022-11-13T19:46:05.692Z,34.90
2022-11-13T19:49:28.361Z,35.77
2022-11-13T19:52:52.063Z,36.70
2022-11-13T19:56:16.192Z,35.83
2022-11-13T19:59:39.694Z,30.53
2022-11-13T20:03:06.564Z,26.83
2022-11-13T20:06:31.657Z,25.83
2022-11-13T20:09:55.312Z,28.90
2022-11-13T20:13:17.853Z,29.17
2022-11-13T20:16:40.106Z,29.07
2022-11-13T20:20:02.543Z,29.30
2022-11-13T20:23:26.192Z,28.63
2022-11-13T20:26:49.725Z,24.93
2022-11-13T20:30:13.222Z,23.43
2022-11-13T20:33:36.422Z,24.60
2022-11-13T20:36:58.841Z,23.20
2022-11-13T20:40:21.042Z,24.13
2022-11-13T20:43:44.755Z,24.60
2022-11-13T20:47:07.371Z,21.27
2022-11-13T20:50:29.802Z,22.77
2022-11-13T20:53:52.786Z,23.43
2022-11-13T20:57:14.991Z,24.87
2022-11-13T21:00:38.983Z,24.43
2022-11-13T21:04:01.443Z,24.33
2022-11-13T21:07:23.612Z,23.27
2022-11-13T21:10:46.015Z,23.27
2022-11-13T21:14:08.214Z,22.20
2022-11-13T21:17:32.197Z,24.47
2022-11-13T21:20:54.692Z,23.13
2022-11-13T21:24:16.930Z,24.10
2022-11-13T21:27:40.435Z,22.93
2022-11-13T21:31:05.992Z,23.47
2022-11-13T21:34:29.664Z,22.77
2022-11-13T21:37:52.092Z,24.40
2022-11-13T21:41:25.882Z,22.07
2022-11-13T21:44:47.863Z,22.87
2022-11-13T21:48:10.119Z,24.27
2022-11-13T21:51:35.332Z,22.50
2022-11-13T21:54:57.653Z,22.93
2022-11-13T21:58:19.672Z,21.93
2022-11-13T22:01:41.766Z,23.07
2022-11-13T22:05:03.812Z,21.83
2022-11-13T22:08:28.051Z,23.10
2022-11-13T22:11:50.673Z,21.83
2022-11-13T22:15:13.333Z,22.07
2022-11-13T22:18:36.302Z,20.43
2022-11-13T22:21:58.542Z,19.83
2022-11-13T22:25:22.163Z,21.87
2022-11-13T22:28:46.161Z,20.93
2022-11-13T22:32:08.173Z,20.93
2022-11-13T22:35:31.252Z,20.33
2022-11-13T22:38:54.357Z,19.67
2022-11-13T22:42:18.122Z,20.43
2022-11-13T22:45:40.384Z,19.20
2022-11-13T22:49:03.901Z,20.43
2022-11-13T22:52:26.102Z,21.67
2022-11-13T22:55:48.166Z,19.83
2022-11-13T22:59:13.402Z,21.10
2022-11-13T23:02:35.551Z,20.83
2022-11-13T23:05:57.984Z,20.83
2022-11-13T23:09:20.091Z,21.83
2022-11-13T23:12:43.141Z,22.10
2022-11-13T23:16:07.032Z,20.83
2022-11-13T23:19:29.211Z,21.30
2022-11-13T23:22:51.283Z,20.23
2022-11-13T23:26:15.004Z,19.33
2022-11-13T23:29:37.482Z,20.23
2022-11-13T23:33:01.263Z,19.20
2022-11-13T23:36:24.103Z,19.47
2022-11-13T23:39:46.651Z,19.63
2022-11-13T23:43:08.962Z,17.77
2022-11-13T23:46:31.279Z,18.00
2022-11-13T23:49:54.774Z,17.97
2022-11-13T23:53:17.256Z,16.87
2022-11-13T23:56:39.316Z,15.07
